Flight Track Log - Related Links

Times and Time Zones

All times are in EDT time to prevent confusion due to time zone crossing. See the DAL268 flight status page for this flight to view local times or setup timezone preferences in your user account.


Time Position Orientation Groundspeed Altitude Reporting Facility
EDT Latitude Longitude Course Direction KTS MPH feet Rate Location/Type
Sat 02:45:06 PM 37.6360 -122.3620 90° East 600  Level FlightAware ADS-B
Sat 02:45:16 PM 37.6420 -122.3560 38° Northeast 166 191 1,100 2,200 Climbing FlightAware ADS-B
Sat 02:45:36 PM 37.6520 -122.3410 50° Northeast 184 212 1,700 1,600 Climbing FlightAware ADS-B
Sat 02:45:46 PM 37.6580 -122.3330 47° Northeast 199 229 1,900 1,714 Climbing FlightAware ADS-B
Sat 02:46:11 PM 37.6750 -122.3100 47° Northeast 224 258 2,700 2,000 Climbing FlightAware ADS-B
Sat 02:46:31 PM 37.6910 -122.2890 46° Northeast 243 280 3,400 2,571 Climbing FlightAware ADS-B
Sat 02:46:46 PM 37.7040 -122.2750 40° Northeast 242 278 4,200 3,300 Climbing FlightAware ADS-B
Sat 02:46:51 PM 37.7080 -122.2710 38° Northeast 242 278 4,500 2,400 Climbing FlightAware ADS-B
Sat 02:47:01 PM 37.7160 -122.2670 22° Northeast 244 281 4,800 2,800 Climbing FlightAware ADS-B
Sat 02:47:21 PM 37.7400 -122.2570 18° North 245 282 5,900 2,743 Climbing FlightAware ADS-B
Sat 02:47:36 PM 37.7570 -122.2490 20° North 257 296 6,400 1,800 Climbing FlightAware ADS-B
Sat 02:47:41 PM 37.7620 -122.2440 38° Northeast 264 304 6,500 1,800 Climbing FlightAware ADS-B
Sat 02:48:06 PM 37.7870 -122.2200 37° Northeast 283 326 7,300 2,667 Climbing FlightAware ADS-B
Sat 02:48:26 PM 37.8080 -122.2000 37° Northeast 274 315 8,500 3,000 Climbing FlightAware ADS-B
Sat 02:48:46 PM 37.8280 -122.1810 37° Northeast 278 320 9,300 2,057 Climbing FlightAware ADS-B
Sat 02:49:01 PM 37.8420 -122.1660 40° Northeast 287 330 9,700 1,333 Climbing FlightAware ADS-B
Sat 02:49:31 PM 37.8760 -122.1320 38° Northeast 311 358 10,300 1,714 Climbing FlightAware ADS-B
Sat 02:50:11 PM 37.9170 -122.0900 39° Northeast 317 365 11,700 2,160 Climbing FlightAware ADS-B
Sat 02:50:46 PM 37.9630 -122.0430 39° Northeast 330 380 13,000 2,123 Climbing FlightAware ADS-B
Sat 02:51:16 PM 37.9990 -122.0070 38° Northeast 335 386 14,000 2,029 Climbing FlightAware ADS-B
Sat 02:51:54 PM 38.0440 -121.9610 39° Northeast 341 392 15,300 1,714 Climbing FlightAware ADS-B
Sat 02:52:26 PM 38.0870 -121.9190 38° Northeast 358 412 16,000 1,151 Climbing FlightAware ADS-B
Sat 02:53:07 PM 38.1420 -121.8630 39° Northeast 385 443 16,700 1,151 Climbing FlightAware ADS-B
Sat 02:53:39 PM 38.1870 -121.8160 39° Northeast 400 460 17,400 1,412 Climbing FlightAware ADS-B
Sat 02:54:15 PM 38.2400 -121.7610 39° Northeast 410 472 18,300 1,636 Climbing FlightAware ADS-B
Sat 02:54:56 PM 38.3020 -121.6980 39° Northeast 417 480 19,500 1,636 Climbing FlightAware ADS-B
Sat 02:55:32 PM 38.3560 -121.6430 39° Northeast 422 486 20,400 1,583 Climbing FlightAware ADS-B
Sat 02:56:08 PM 38.4120 -121.5850 39° Northeast 429 494 21,400 1,629 Climbing FlightAware ADS-B
Sat 02:56:42 PM 38.4600 -121.5230 45° Northeast 432 497 22,300 1,457 Climbing FlightAware ADS-B
Sat 02:57:18 PM 38.5040 -121.4510 52° Northeast 438 504 23,100 1,250 Climbing FlightAware ADS-B
Sat 02:57:54 PM 38.5470 -121.3750 54° Northeast 445 512 23,800 1,235 Climbing FlightAware ADS-B
Sat 02:58:26 PM 38.5870 -121.3070 53° Northeast 449 517 24,500 1,371 Climbing FlightAware ADS-B
Sat 02:59:04 PM 38.6330 -121.2270 54° Northeast 454 522 25,400 1,417 Climbing FlightAware ADS-B
Sat 02:59:38 PM 38.6760 -121.1520 54° Northeast 456 525 26,200 1,286 Climbing FlightAware ADS-B
Sat 03:00:14 PM 38.7220 -121.0730 53° Northeast 461 531 26,900 1,147 Climbing FlightAware ADS-B
Sat 03:00:46 PM 38.7630 -121.0030 53° Northeast 467 537 27,500 1,091 Climbing FlightAware ADS-B
Sat 03:01:20 PM 38.8060 -120.9270 54° Northeast 472 543 28,100 1,167 Climbing FlightAware ADS-B
Sat 03:01:58 PM 38.8560 -120.8410 53° Northeast 474 545 28,900 1,378 Climbing FlightAware ADS-B
Sat 03:02:34 PM 38.9030 -120.7600 53° Northeast 470 541 29,800 1,629 Climbing FlightAware ADS-B
Sat 03:03:08 PM 38.9460 -120.6850 54° Northeast 464 534 30,800 1,636 Climbing FlightAware ADS-B
Sat 03:03:40 PM 38.9860 -120.6150 54° Northeast 459 528 31,600 1,391 Climbing FlightAware ADS-B
Sat 03:04:17 PM 39.0320 -120.5350 53° Northeast 457 526 32,400 1,333 Climbing FlightAware ADS-B
Sat 03:04:52 PM 39.0770 -120.4580 53° Northeast 454 522 33,200 1,352 Climbing FlightAware ADS-B
Sat 03:05:28 PM 39.1220 -120.3800 53° Northeast 451 519 34,000 1,364 Climbing FlightAware ADS-B
Sat 03:05:58 PM 39.1580 -120.3150 54° Northeast 446 513 34,700 1,200 Climbing FlightAware ADS-B
Sat 03:06:38 PM 39.2070 -120.2290 54° Northeast 446 513 35,400 1,026 Climbing FlightAware ADS-B
Sat 03:07:14 PM 39.2490 -120.1540 54° Northeast 446 513 36,000 971 Climbing FlightAware ADS-B
Sat 03:07:46 PM 39.2820 -120.0770 61° Northeast 446 513 36,500 844 Climbing FlightAware ADS-B
Sat 03:08:18 PM 39.3130 -120.0030 62° Northeast 446 513 36,900 469 Climbing FlightAware ADS-B
Sat 03:08:50 PM 39.3460 -119.9290 60° Northeast 446 513 37,000 88 Climbing FlightAware ADS-B
Sat 03:09:26 PM 39.3830 -119.8460 60° Northeast 444 511 37,000  Level FlightAware ADS-B
Sat 03:10:03 PM 39.4200 -119.7630 60° Northeast 446 513 37,000  Level FlightAware ADS-B
Sat 03:10:38 PM 39.4560 -119.6820 60° Northeast 448 516 37,000  Level FlightAware ADS-B
Sat 03:11:12 PM 39.4910 -119.6030 60° Northeast 450 518 37,000  Level FlightAware ADS-B
Sat 03:11:40 PM 39.5200 -119.5360 61° Northeast 451 519 37,000  Level FlightAware ADS-B
Sat 03:12:26 PM 39.5660 -119.4270 61° Northeast 452 520 37,000  Level FlightAware ADS-B
Sat 03:13:03 PM 39.6030 -119.3380 62° Northeast 453 521 37,000  Level FlightAware ADS-B
Sat 03:13:36 PM 39.6370 -119.2590 61° Northeast 453 521 37,000  Level FlightAware ADS-B
Sat 03:14:13 PM 39.6740 -119.1700 62° Northeast 453 521 37,000  Level FlightAware ADS-B
Sat 03:14:49 PM 39.7100 -119.0860 61° Northeast 452 520 37,000  Level FlightAware ADS-B
Sat 03:15:25 PM 39.7460 -118.9990 62° Northeast 451 519 37,000  Level FlightAware ADS-B
Sat 03:15:59 PM 39.7800 -118.9170 62° Northeast 451 519 37,000  Level FlightAware ADS-B
Sat 03:16:35 PM 39.8150 -118.8330 62° Northeast 451 519 37,000  Level FlightAware ADS-B
Sat 03:17:07 PM 39.8480 -118.7560 61° Northeast 451 519 37,000  Level FlightAware ADS-B
Sat 03:17:43 PM 39.8830 -118.6720 61° Northeast 450 518 37,000  Level FlightAware ADS-B
Sat 03:18:18 PM 39.9180 -118.5870 62° Northeast 450 518 37,000  Level FlightAware ADS-B
Sat 03:18:50 PM 39.9490 -118.5110 62° Northeast 450 518 37,000  Level FlightAware ADS-B
Sat 03:19:28 PM 39.9860 -118.4210 62° Northeast 450 518 37,000  Level FlightAware ADS-B
Sat 03:20:00 PM 40.0180 -118.3430 62° Northeast 450 518 37,000  Level FlightAware ADS-B
Sat 03:20:36 PM 40.0520 -118.2600 62° Northeast 448 516 37,000  Level FlightAware ADS-B
Sat 03:21:15 PM 40.0900 -118.1660 62° Northeast 447 514 37,000  Level FlightAware ADS-B
Sat 03:21:51 PM 40.1260 -118.0800 61° Northeast 446 513 37,000  Level FlightAware ADS-B
Sat 03:22:23 PM 40.1560 -118.0040 63° Northeast 446 513 37,000  Level FlightAware ADS-B
Sat 03:22:59 PM 40.1910 -117.9180 62° Northeast 445 512 37,000  Level FlightAware ADS-B
Sat 03:23:35 PM 40.2250 -117.8340 62° Northeast 445 512 37,000  Level FlightAware ADS-B
Sat 03:24:28 PM 40.2720 -117.7170 62° Northeast 444 511 37,000  Level FlightAware ADS-B
Sat 03:25:05 PM 40.3030 -117.6420 62° Northeast 444 511 37,000  Level FlightAware ADS-B
Sat 03:25:41 PM 40.3320 -117.5690 62° Northeast 444 511 37,000  Level FlightAware ADS-B
Sat 03:26:15 PM 40.3600 -117.5000 62° Northeast 444 511 37,000  Level FlightAware ADS-B
Sat 03:26:53 PM 40.3910 -117.4230 62° Northeast 444 511 37,000  Level FlightAware ADS-B
Sat 03:27:29 PM 40.4210 -117.3500 62° Northeast 444 511 37,000  Level FlightAware ADS-B
Sat 03:28:05 PM 40.4500 -117.2770 62° Northeast 444 511 37,000  Level FlightAware ADS-B
Sat 03:28:41 PM 40.4800 -117.2050 61° Northeast 444 511 37,000  Level FlightAware ADS-B
Sat 03:29:17 PM 40.5090 -117.1320 62° Northeast 444 511 37,000  Level FlightAware ADS-B
Sat 03:29:53 PM 40.5390 -117.0590 62° Northeast 444 511 37,000  Level FlightAware ADS-B
Sat 03:30:29 PM 40.5680 -116.9850 63° Northeast 444 511 37,000  Level FlightAware ADS-B
Sat 03:31:06 PM 40.5990 -116.9100 61° Northeast 444 511 37,000  Level FlightAware ADS-B
Sat 03:31:42 PM 40.6280 -116.8370 62° Northeast 444 511 37,000  Level FlightAware ADS-B
Sat 03:32:18 PM 40.6580 -116.7640 62° Northeast 444 511 37,000  Level FlightAware ADS-B
Sat 03:32:54 PM 40.6870 -116.6910 62° Northeast 444 511 37,000  Level FlightAware ADS-B
Sat 03:33:30 PM 40.7170 -116.6180 62° Northeast 444 511 37,000  Level FlightAware ADS-B
Sat 03:34:10 PM 40.8106 -116.3422 62° Northeast 436 502 37,000  Level Salt Lake Center
Sat 03:35:11 PM 40.8631 -116.2067 63° Northeast 434 499 37,000  Level Salt Lake Center
Sat 03:40:37 PM 41.1620 -115.4130 63° Northeast 433 498 37,000  Level FlightAware ADS-B
Sat 03:41:09 PM 41.1890 -115.3400 64° Northeast 432 497 37,000  Level FlightAware ADS-B
Sat 03:41:45 PM 41.2210 -115.2540 64° Northeast 432 497 37,000  Level FlightAware ADS-B
Sat 03:42:21 PM 41.2530 -115.1660 64° Northeast 432 497 37,000  Level FlightAware ADS-B
Sat 03:42:55 PM 41.2830 -115.0860 63° Northeast 431 496 37,000  Level FlightAware ADS-B
Sat 03:43:31 PM 41.3150 -114.9990 64° Northeast 431 496 37,000  Level FlightAware ADS-B
Sat 03:44:07 PM 41.3460 -114.9140 64° Northeast 431 496 37,000  Level FlightAware ADS-B
Sat 03:44:54 PM 41.3830 -114.8120 64° Northeast 431 496 37,000  Level FlightAware ADS-B
Sat 03:45:31 PM 41.4100 -114.7370 64° Northeast 431 496 37,000  Level FlightAware ADS-B
Sat 03:46:07 PM 41.4370 -114.6640 64° Northeast 431 496 37,000  Level FlightAware ADS-B
Sat 03:46:44 PM 41.4640 -114.5890 64° Northeast 431 496 37,000  Level FlightAware ADS-B
Sat 03:47:20 PM 41.4910 -114.5150 64° Northeast 431 496 37,000  Level FlightAware ADS-B
Sat 03:47:58 PM 41.5430 -114.3660 65° Northeast 427 491 37,000  Level FlightAware ADS-B
Sat 03:48:32 PM 41.5720 -114.2850 64° Northeast 426 490 37,000  Level FlightAware ADS-B
Sat 03:49:13 PM 41.6030 -114.2020 63° Northeast 426 490 37,000  Level FlightAware ADS-B
Sat 03:49:48 PM 41.6360 -114.1060 65° Northeast 424 488 37,000  Level FlightAware ADS-B
Sat 03:50:24 PM 41.6670 -114.0190 64° Northeast 424 488 37,000  Level FlightAware ADS-B
Sat 03:51:00 PM 41.6970 -113.9340 65° Northeast 425 489 37,000  Level FlightAware ADS-B
Sat 03:51:36 PM 41.7270 -113.8470 65° Northeast 425 489 37,000  Level FlightAware ADS-B
Sat 03:52:08 PM 41.7540 -113.7700 65° Northeast 425 489 37,000  Level FlightAware ADS-B
Sat 03:52:42 PM 41.7820 -113.6910 65° Northeast 425 489 37,000  Level FlightAware ADS-B
Sat 03:53:18 PM 41.8120 -113.6050 65° Northeast 425 489 37,000  Level FlightAware ADS-B
Sat 03:53:56 PM 41.8440 -113.5140 65° Northeast 426 490 37,000  Level FlightAware ADS-B
Sat 03:54:32 PM 41.8730 -113.4280 66° East 426 490 37,000  Level FlightAware ADS-B
Sat 03:55:04 PM 41.9000 -113.3510 65° Northeast 426 490 37,000  Level FlightAware ADS-B
Sat 03:55:40 PM 41.9290 -113.2660 65° Northeast 427 491 37,000  Level FlightAware ADS-B
Sat 03:56:12 PM 41.9560 -113.1880 65° Northeast 426 490 37,000  Level FlightAware ADS-B
Sat 03:56:52 PM 41.9850 -113.1030 65° Northeast 426 490 37,000  Level FlightAware ADS-B
Sat 03:57:22 PM 42.0140 -113.0200 65° Northeast 425 489 37,000  Level FlightAware ADS-B
Sat 03:57:58 PM 42.0430 -112.9350 65° Northeast 426 490 37,000  Level FlightAware ADS-B
Sat 03:58:34 PM 42.0730 -112.8460 66° East 426 490 37,000  Level FlightAware ADS-B
Sat 03:59:10 PM 42.1010 -112.7610 66° East 425 489 37,000  Level FlightAware ADS-B
Sat 03:59:56 PM 42.1360 -112.6600 65° Northeast 424 488 37,000  Level FlightAware ADS-B
Sat 04:00:44 PM 42.1750 -112.5430 66° East 424 488 37,000  Level FlightAware ADS-B
Sat 04:01:14 PM 42.2020 -112.4630 65° Northeast 425 489 37,000  Level FlightAware ADS-B
Sat 04:01:52 PM 42.2330 -112.3700 66° East 426 490 37,000  Level FlightAware ADS-B
Sat 04:02:29 PM 42.2600 -112.2890 66° East 426 490 37,000  Level FlightAware ADS-B
Sat 04:03:00 PM 42.2870 -112.2050 66° East 424 488 37,000  Level FlightAware ADS-B
Sat 04:03:36 PM 42.3150 -112.1200 66° East 424 488 37,000  Level FlightAware ADS-B
Sat 04:04:18 PM 42.3460 -112.0320 64° Northeast 424 488 37,000  Level FlightAware ADS-B
Sat 04:04:54 PM 42.3710 -111.9580 65° Northeast 424 488 37,000  Level FlightAware ADS-B
Sat 04:05:31 PM 42.3970 -111.8820 65° Northeast 424 488 37,000  Level FlightAware ADS-B
Sat 04:06:08 PM 42.4230 -111.8060 65° Northeast 424 488 37,000  Level FlightAware ADS-B
Sat 04:06:44 PM 42.4490 -111.7330 64° Northeast 424 488 37,000  Level FlightAware ADS-B
Sat 04:07:20 PM 42.4740 -111.6590 65° Northeast 424 488 37,000  Level FlightAware ADS-B
Sat 04:07:55 PM 42.5210 -111.4900 69° East 425 489 37,000  Level FlightAware ADS-B
Sat 04:08:40 PM 42.5530 -111.3910 66° East 426 490 37,000  Level FlightAware ADS-B
Sat 04:09:17 PM 42.5780 -111.3140 66° East 426 490 37,000  Level FlightAware ADS-B
Sat 04:09:54 PM 42.6030 -111.2370 66° East 426 490 37,000  Level FlightAware ADS-B
Sat 04:10:32 PM 42.6290 -111.1580 66° East 426 490 37,000  Level FlightAware ADS-B
Sat 04:11:23 PM 42.6640 -111.0520 66° East 426 490 37,000  Level FlightAware ADS-B
Sat 04:11:59 PM 42.6880 -110.9770 66° East 426 490 37,000  Level FlightAware ADS-B
Sat 04:12:35 PM 42.7130 -110.9020 66° East 426 490 37,000  Level FlightAware ADS-B
Sat 04:13:11 PM 42.7370 -110.8270 66° East 426 490 37,000  Level FlightAware ADS-B
Sat 04:13:48 PM 42.7630 -110.7500 65° Northeast 426 490 37,000  Level FlightAware ADS-B
Sat 04:14:24 PM 42.7870 -110.6750 66° East 426 490 37,000  Level FlightAware ADS-B
Sat 04:15:00 PM 42.8120 -110.6000 66° East 426 490 37,000  Level FlightAware ADS-B
Sat 04:15:36 PM 42.8360 -110.5250 66° East 426 490 37,000  Level FlightAware ADS-B
Sat 04:16:12 PM 42.8610 -110.4500 66° East 426 490 37,000  Level FlightAware ADS-B
Sat 04:16:48 PM 42.8850 -110.3750 66° East 426 490 37,000  Level FlightAware ADS-B
Sat 04:17:24 PM 42.9100 -110.2990 66° East 426 490 37,000  Level FlightAware ADS-B
Sat 04:18:00 PM 42.9340 -110.2240 66° East 426 490 37,000  Level FlightAware ADS-B
Sat 04:19:20 PM 43.0381 -109.8333 66° East 420 483 37,000  Level Salt Lake Center
Sat 04:20:21 PM 43.0828 -109.6864 67° East 420 483 37,000  Level Salt Lake Center
Sat 04:21:23 PM 43.1269 -109.5403 67° East 418 481 37,000  Level Salt Lake Center
Sat 04:22:24 PM 43.1719 -109.3953 67° East 415 478 37,000  Level Salt Lake Center
Sat 04:23:26 PM 43.2156 -109.2464 68° East 420 483 37,000  Level Salt Lake Center
Sat 04:24:27 PM 43.2586 -109.0994 68° East 419 482 37,000  Level Salt Lake Center
Sat 04:25:28 PM 43.3006 -108.9494 69° East 420 483 37,000  Level Salt Lake Center
Sat 04:26:30 PM 43.3511 -108.7750 68° East 415 478 37,000  Level Salt Lake Center
Sat 04:27:31 PM 43.3942 -108.6297 68° East 411 473 37,000  Level Salt Lake Center
Sat 04:28:32 PM 43.4367 -108.4833 68° East 412 474 37,000  Level Salt Lake Center
Sat 04:29:34 PM 43.4786 -108.3361 69° East 415 478 37,000  Level Salt Lake Center
Sat 04:30:35 PM 43.5203 -108.1875 69° East 418 481 37,000  Level Salt Lake Center
Sat 04:31:36 PM 43.5625 -108.0392 69° East 418 481 37,000  Level Salt Lake Center
Sat 04:37:05 PM 43.7940 -107.2030 69° East 417 480 37,000  Level FlightAware ADS-B
Sat 04:37:51 PM 43.8230 -107.0970 69° East 417 480 37,000  Level FlightAware ADS-B
Sat 04:38:27 PM 43.8440 -107.0210 69° East 417 480 37,000  Level FlightAware ADS-B
Sat 04:39:03 PM 43.8650 -106.9440 69° East 417 480 37,000  Level FlightAware ADS-B
Sat 04:39:40 PM 43.8870 -106.8660 69° East 417 480 37,000  Level FlightAware ADS-B
Sat 04:40:14 PM 43.9070 -106.7930 69° East 417 480 37,000  Level FlightAware ADS-B
Sat 04:40:50 PM 43.9280 -106.7170 69° East 417 480 37,000  Level FlightAware ADS-B
Sat 04:41:28 PM 43.9510 -106.6360 68° East 417 480 37,000  Level FlightAware ADS-B
Sat 04:42:04 PM 43.9720 -106.5590 69° East 417 480 37,000  Level FlightAware ADS-B
Sat 04:42:40 PM 43.9930 -106.4830 69° East 417 480 37,000  Level FlightAware ADS-B
Sat 04:43:17 PM 44.0150 -106.4040 69° East 417 480 37,000  Level FlightAware ADS-B
Sat 04:43:53 PM 44.0360 -106.3270 69° East 417 480 37,000  Level FlightAware ADS-B
Sat 04:44:29 PM 44.0570 -106.2510 69° East 417 480 37,000  Level FlightAware ADS-B
Sat 04:45:06 PM 44.0790 -106.1720 69° East 417 480 37,000  Level FlightAware ADS-B
Sat 04:45:42 PM 44.1000 -106.0950 69° East 417 480 37,000  Level FlightAware ADS-B
Sat 04:46:18 PM 44.1210 -106.0180 69° East 417 480 37,000  Level FlightAware ADS-B
Sat 04:46:55 PM 44.1430 -105.9400 69° East 417 480 37,000 1,277 Level FlightAware ADS-B
Sat 04:47:52 PM 44.0044 -105.5192 69° East 433 498 39,000 1,008 Climbing Denver Center
Sat 04:48:54 PM 44.0047 -105.3297 90° East 437 503 39,000 195 Level Denver Center
Sat 04:49:55 PM 44.0033 -105.1700 91° East 435 501 39,400 293 Climbing Denver Center
Sat 04:50:57 PM 44.0025 -104.9750 90° East 445 512 39,600 146 Climbing Denver Center
Sat 04:51:58 PM 44.0022 -104.8028 90° East 457 526 39,700 195 Climbing Denver Center
Sat 04:53:00 PM 44.0008 -104.6303 91° East 464 534 40,000 146 Climbing Denver Center
Sat 04:54:01 PM 43.9989 -104.4342 91° East 457 526 40,000  Level Denver Center
Sat 04:55:02 PM 43.9975 -104.2689 91° East 449 517 40,000  Level Denver Center
Sat 04:56:04 PM 43.9947 -104.0731 91° East 453 521 40,000  Level Denver Center
Sat 04:57:05 PM 43.9936 -103.9072 90° East 449 517 40,000  Level Denver Center
Sat 04:58:07 PM 43.9903 -103.7381 92° East 454 522 40,000  Level Denver Center
Sat 04:59:08 PM 43.9867 -103.5444 91° East 449 517 40,000  Level Denver Center
Sat 05:00:10 PM 43.9850 -103.3775 91° East 452 520 40,000  Level Denver Center
Sat 05:01:11 PM 43.9817 -103.1853 91° East 448 516 40,000  Level Denver Center
Sat 05:02:12 PM 43.9833 -103.0169 89° East 459 528 40,000  Level Denver Center
Sat 05:03:14 PM 44.0261 -102.8658 68° East 448 516 40,000  Level Denver Center
Sat 05:04:15 PM 44.0839 -102.6956 65° Northeast 445 512 40,000  Level Denver Center
Sat 05:05:17 PM 44.1369 -102.5369 65° Northeast 450 518 40,000  Level Denver Center
Sat 05:06:18 PM 44.1903 -102.3778 65° Northeast 455 524 40,000  Level Denver Center
Sat 05:07:20 PM 44.2431 -102.2178 65° Northeast 455 524 40,000  Level Denver Center
Sat 05:08:21 PM 44.2947 -102.0556 66° East 457 526 40,000  Level Denver Center
Sat 05:09:23 PM 44.3486 -101.8936 65° Northeast 461 531 40,000  Level Denver Center
Sat 05:10:24 PM 44.4006 -101.7283 66° East 464 534 40,000  Level Denver Center
Sat 05:11:07 PM 44.4414 -101.5967 66° East 464 534 40,000  Level Minneapolis Center
Sat 05:12:09 PM 44.4942 -101.4319 66° East 465 535 40,000  Level Minneapolis Center
Sat 05:13:10 PM 44.5408 -101.2667 68° East 462 532 40,000 -146 Level Minneapolis Center
Sat 05:14:12 PM 44.5578 -101.0925 82° East 454 522 39,700 -488 Descending Minneapolis Center
Sat 05:15:13 PM 44.5822 -100.8867 80° East 450 518 39,000 -341 Descending Minneapolis Center
Sat 05:16:15 PM 44.6019 -100.7144 81° East 449 517 39,000  Level Minneapolis Center
Sat 05:17:16 PM 44.6222 -100.5417 81° East 450 518 39,000  Level Minneapolis Center
Sat 05:18:17 PM 44.6411 -100.3683 81° East 453 521 39,000  Level Minneapolis Center
Sat 05:19:19 PM 44.6608 -100.1936 81° East 456 525 39,000  Level Minneapolis Center
Sat 05:20:20 PM 44.6797 -100.0189 81° East 457 526 39,000  Level Minneapolis Center
Sat 05:21:22 PM 44.6983 -99.8436 81° East 459 528 39,000  Level Minneapolis Center
Sat 05:22:23 PM 44.7214 -99.6325 81° East 460 529 39,000  Level Minneapolis Center
Sat 05:27:52 PM 44.8210 -98.6460 81° East 464 534 39,000  Level FlightAware ADS-B
Sat 05:28:23 PM 44.8290 -98.5540 83° East 465 535 39,000  Level FlightAware ADS-B
Sat 05:29:06 PM 44.8410 -98.4280 82° East 466 536 39,000  Level FlightAware ADS-B
Sat 05:29:39 PM 44.8510 -98.3260 82° East 466 536 39,000  Level FlightAware ADS-B
Sat 05:30:16 PM 44.8610 -98.2150 83° East 464 534 39,000  Level FlightAware ADS-B
Sat 05:30:53 PM 44.8710 -98.1030 83° East 462 532 39,000  Level FlightAware ADS-B
Sat 05:31:24 PM 44.8800 -98.0120 82° East 461 531 39,000  Level FlightAware ADS-B
Sat 05:32:01 PM 44.8890 -97.9010 83° East 460 529 39,000  Level FlightAware ADS-B
Sat 05:32:38 PM 44.8990 -97.7930 83° East 460 529 39,000  Level FlightAware ADS-B
Sat 05:33:14 PM 44.9090 -97.6840 83° East 461 531 39,000  Level FlightAware ADS-B
Sat 05:33:44 PM 44.9160 -97.5950 84° East 461 531 39,000  Level FlightAware ADS-B
Sat 05:34:21 PM 44.9260 -97.4820 83° East 463 533 39,000  Level FlightAware ADS-B
Sat 05:34:54 PM 44.9340 -97.3890 83° East 464 534 39,000  Level FlightAware ADS-B
Sat 05:35:31 PM 44.9430 -97.2790 83° East 464 534 39,000  Level FlightAware ADS-B
Sat 05:36:07 PM 44.9520 -97.1700 83° East 464 534 39,000  Level FlightAware ADS-B
Sat 05:36:43 PM 44.9610 -97.0590 83° East 464 534 39,000  Level FlightAware ADS-B
Sat 05:37:16 PM 44.9690 -96.9590 84° East 462 532 39,000  Level FlightAware ADS-B
Sat 05:37:52 PM 44.9780 -96.8500 83° East 463 533 39,000  Level FlightAware ADS-B
Sat 05:38:25 PM 44.9860 -96.7540 83° East 461 531 39,000  Level FlightAware ADS-B
Sat 05:39:01 PM 44.9940 -96.6470 84° East 461 531 39,000  Level FlightAware ADS-B
Sat 05:39:36 PM 45.0020 -96.5410 84° East 463 533 39,000  Level FlightAware ADS-B
Sat 05:40:12 PM 45.0100 -96.4320 84° East 464 534 39,000  Level FlightAware ADS-B
Sat 05:40:48 PM 45.0190 -96.3220 83° East 464 534 39,000  Level FlightAware ADS-B
Sat 05:41:21 PM 45.0260 -96.2250 84° East 464 534 39,000  Level FlightAware ADS-B
Sat 05:41:56 PM 45.0340 -96.1180 84° East 463 533 39,000  Level FlightAware ADS-B
Sat 05:42:33 PM 45.0420 -96.0080 84° East 463 533 39,000  Level FlightAware ADS-B
Sat 05:43:06 PM 45.0490 -95.9070 84° East 463 533 39,000  Level FlightAware ADS-B
Sat 05:43:44 PM 45.0570 -95.7940 84° East 463 533 39,000  Level FlightAware ADS-B
Sat 05:44:17 PM 45.0640 -95.6960 84° East 463 533 39,000  Level FlightAware ADS-B
Sat 05:44:52 PM 45.0710 -95.5900 85° East 464 534 39,000  Level FlightAware ADS-B
Sat 05:45:28 PM 45.0780 -95.4810 85° East 467 537 39,000  Level FlightAware ADS-B
Sat 05:46:05 PM 45.0860 -95.3670 84° East 470 541 39,000  Level FlightAware ADS-B
Sat 05:46:37 PM 45.0930 -95.2690 84° East 471 542 39,000  Level FlightAware ADS-B
Sat 05:47:12 PM 45.0990 -95.1640 85° East 472 543 39,000  Level FlightAware ADS-B
Sat 05:47:49 PM 45.1070 -95.0500 84° East 473 544 39,000  Level FlightAware ADS-B
Sat 05:48:21 PM 45.1130 -94.9520 85° East 474 545 39,000  Level FlightAware ADS-B
Sat 05:48:57 PM 45.1200 -94.8380 85° East 475 547 39,000  Level FlightAware ADS-B
Sat 05:49:33 PM 45.1270 -94.7270 85° East 475 547 39,000  Level FlightAware ADS-B
Sat 05:50:08 PM 45.1330 -94.6210 85° East 476 548 39,000  Level FlightAware ADS-B
Sat 05:50:44 PM 45.1400 -94.5080 85° East 478 550 39,000  Level FlightAware ADS-B
Sat 05:51:17 PM 45.1460 -94.4060 85° East 477 549 39,000  Level FlightAware ADS-B
Sat 05:51:54 PM 45.1520 -94.2920 86° East 475 547 39,000  Level FlightAware ADS-B
Sat 05:52:28 PM 45.1580 -94.1860 85° East 473 544 39,000  Level FlightAware ADS-B
Sat 05:53:02 PM 45.1640 -94.0810 85° East 473 544 39,000  Level FlightAware ADS-B
Sat 05:53:34 PM 45.1690 -93.9830 86° East 472 543 39,000  Level FlightAware ADS-B
Sat 05:54:06 PM 45.1740 -93.8870 86° East 472 543 39,000  Level FlightAware ADS-B
Sat 05:54:41 PM 45.1800 -93.7750 86° East 473 544 39,000  Level FlightAware ADS-B
Sat 05:55:17 PM 45.1860 -93.6640 86° East 475 547 39,000  Level FlightAware ADS-B
Sat 05:55:53 PM 45.1920 -93.5540 86° East 477 549 39,000  Level FlightAware ADS-B
Sat 05:56:25 PM 45.1970 -93.4550 86° East 480 552 39,000  Level FlightAware ADS-B
Sat 05:57:01 PM 45.2020 -93.3400 86° East 481 554 39,000 329 Level FlightAware ADS-B
Sat 05:57:38 PM 45.2080 -93.2270 86° East 480 552 39,400 857 Climbing FlightAware ADS-B
Sat 05:58:11 PM 45.2130 -93.1240 86° East 476 548 40,000 522 Climbing FlightAware ADS-B
Sat 05:58:47 PM 45.2180 -93.0090 86° East 475 547 40,000  Level FlightAware ADS-B
Sat 05:59:22 PM 45.2230 -92.9020 86° East 481 554 40,000  Level FlightAware ADS-B
Sat 05:59:55 PM 45.2270 -92.7950 87° East 484 557 40,000  Level FlightAware ADS-B
Sat 06:00:29 PM 45.2320 -92.6870 86° East 486 559 40,000  Level FlightAware ADS-B
Sat 06:01:07 PM 45.2370 -92.5670 87° East 486 559 40,000  Level FlightAware ADS-B
Sat 06:01:43 PM 45.2420 -92.4530 86° East 486 559 40,000  Level FlightAware ADS-B
Sat 06:02:19 PM 45.2470 -92.3400 86° East 485 558 40,000  Level FlightAware ADS-B
Sat 06:02:49 PM 45.2500 -92.2420 87° East 485 558 40,000  Level FlightAware ADS-B
Sat 06:03:27 PM 45.2550 -92.1230 87° East 485 558 40,000  Level FlightAware ADS-B
Sat 06:04:01 PM 45.2590 -92.0180 87° East 483 556 40,000  Level FlightAware ADS-B
Sat 06:04:39 PM 45.2630 -91.8960 87° East 482 555 40,000  Level FlightAware ADS-B
Sat 06:05:11 PM 45.2670 -91.7940 87° East 482 555 40,000  Level FlightAware ADS-B
Sat 06:05:47 PM 45.2710 -91.6830 87° East 480 552 40,000  Level FlightAware ADS-B
Sat 06:06:23 PM 45.2740 -91.5680 88° East 480 552 40,000  Level FlightAware ADS-B
Sat 06:06:59 PM 45.2780 -91.4570 87° East 480 552 40,000  Level FlightAware ADS-B
Sat 06:07:31 PM 45.2810 -91.3570 88° East 480 552 40,000  Level FlightAware ADS-B
Sat 06:08:07 PM 45.2850 -91.2420 87° East 480 552 40,000  Level FlightAware ADS-B
Sat 06:08:43 PM 45.2880 -91.1320 88° East 480 552 40,000  Level FlightAware ADS-B
Sat 06:09:19 PM 45.2910 -91.0160 88° East 481 554 40,000  Level FlightAware ADS-B
Sat 06:09:51 PM 45.2940 -90.9130 88° East 481 554 40,000  Level FlightAware ADS-B
Sat 06:10:27 PM 45.2970 -90.8020 88° East 482 555 40,000  Level FlightAware ADS-B
Sat 06:11:01 PM 45.3000 -90.6940 88° East 482 555 40,000  Level FlightAware ADS-B
Sat 06:11:53 PM 45.3030 -90.5300 88° East 484 557 40,000  Level FlightAware ADS-B
Sat 06:12:25 PM 45.3060 -90.4270 88° East 486 559 40,000  Level FlightAware ADS-B
Sat 06:13:01 PM 45.3080 -90.3180 88° East 488 562 40,000  Level FlightAware ADS-B
Sat 06:13:33 PM 45.3110 -90.2120 88° East 489 563 40,000  Level FlightAware ADS-B
Sat 06:14:13 PM 45.3130 -90.0890 89° East 490 564 40,000  Level FlightAware ADS-B
Sat 06:14:49 PM 45.3150 -89.9700 89° East 491 565 40,000  Level FlightAware ADS-B
Sat 06:15:30 PM 45.3180 -89.8370 88° East 492 566 40,000  Level FlightAware ADS-B
Sat 06:16:01 PM 45.3190 -89.7380 89° East 492 566 40,000  Level FlightAware ADS-B
Sat 06:16:38 PM 45.3210 -89.6230 89° East 493 567 40,000  Level FlightAware ADS-B
Sat 06:17:14 PM 45.3230 -89.5020 89° East 493 567 40,000  Level FlightAware ADS-B
Sat 06:17:49 PM 45.3250 -89.3930 88° East 494 568 40,000  Level FlightAware ADS-B
Sat 06:18:25 PM 45.3260 -89.2680 89° East 494 568 40,000  Level FlightAware ADS-B
Sat 06:19:01 PM 45.3270 -89.1540 89° East 494 568 40,000  Level FlightAware ADS-B
Sat 06:19:33 PM 45.3290 -89.0490 88° East 495 570 40,000  Level FlightAware ADS-B
Sat 06:20:11 PM 45.3300 -88.9280 89° East 495 570 40,000  Level FlightAware ADS-B
Sat 06:20:43 PM 45.3310 -88.8250 89° East 494 568 40,000  Level FlightAware ADS-B
Sat 06:21:19 PM 45.3320 -88.7050 89° East 492 566 40,000  Level FlightAware ADS-B
Sat 06:21:56 PM 45.3330 -88.5890 89° East 491 565 40,000  Level FlightAware ADS-B
Sat 06:22:28 PM 45.3330 -88.4860 90° East 491 565 40,000  Level FlightAware ADS-B
Sat 06:23:00 PM 45.3340 -88.3840 89° East 491 565 40,000  Level FlightAware ADS-B
Sat 06:23:37 PM 45.3350 -88.2830 89° East 491 565 40,000  Level FlightAware ADS-B
Sat 06:24:12 PM 45.3350 -88.1550 90° East 493 567 40,000  Level FlightAware ADS-B
Sat 06:24:50 PM 45.3350 -88.0300 90° East 496 571 40,000  Level FlightAware ADS-B
Sat 06:25:25 PM 45.3350 -87.9170 90° East 499 574 40,000  Level FlightAware ADS-B
Sat 06:26:13 PM 45.3350 -87.7620 90° East 501 577 40,000  Level FlightAware ADS-B
Sat 06:26:47 PM 45.3350 -87.6430 90° East 504 580 40,000  Level FlightAware ADS-B
Sat 06:27:22 PM 45.3350 -87.5300 90° East 507 583 40,000  Level FlightAware ADS-B
Sat 06:28:15 PM 45.3340 -87.3700 90° East 508 585 40,000  Level FlightAware ADS-B
Sat 06:28:44 PM 45.3330 -87.2530 91° East 510 587 40,000  Level FlightAware ADS-B
Sat 06:29:22 PM 45.3330 -87.1300 90° East 511 588 40,000  Level FlightAware ADS-B
Sat 06:29:56 PM 45.3330 -87.0280 90° East 511 588 40,000  Level FlightAware ADS-B
Sat 06:30:32 PM 45.3330 -86.9250 90° East 511 588 40,000  Level FlightAware ADS-B
Sat 06:31:06 PM 45.3300 -86.7790 92° East 514 592 40,000  Level FlightAware ADS-B
Sat 06:31:44 PM 45.3290 -86.6500 91° East 515 593 40,000  Level FlightAware ADS-B
Sat 06:32:24 PM 45.3270 -86.5230 91° East 515 593 40,000  Level FlightAware ADS-B
Sat 06:32:56 PM 45.3260 -86.4110 91° East 515 593 40,000  Level FlightAware ADS-B
Sat 06:33:42 PM 45.3240 -86.2570 91° East 514 592 40,000  Level FlightAware ADS-B
Sat 06:34:18 PM 45.3220 -86.1370 91° East 514 592 40,000  Level FlightAware ADS-B
Sat 06:34:49 PM 45.3200 -86.0280 91° East 516 594 40,000  Level FlightAware ADS-B
Sat 06:35:27 PM 45.3180 -85.8990 91° East 519 597 40,000  Level FlightAware ADS-B
Sat 06:36:01 PM 45.3160 -85.7810 91° East 521 600 40,000  Level FlightAware ADS-B
Sat 06:36:34 PM 45.3140 -85.6680 91° East 522 601 40,000  Level FlightAware ADS-B
Sat 06:37:10 PM 45.3120 -85.5470 91° East 524 603 40,000  Level FlightAware ADS-B
Sat 06:37:46 PM 45.3090 -85.4230 92° East 526 605 40,000  Level FlightAware ADS-B
Sat 06:38:30 PM 45.3060 -85.2730 92° East 528 608 40,000  Level FlightAware ADS-B
Sat 06:39:01 PM 45.3030 -85.1640 92° East 530 610 40,000  Level FlightAware ADS-B
Sat 06:39:47 PM 45.3000 -85.0070 92° East 533 613 40,000  Level FlightAware ADS-B
Sat 06:40:34 PM 45.2950 -84.8410 92° East 536 617 40,000  Level FlightAware ADS-B
Sat 06:41:10 PM 45.2920 -84.7130 92° East 536 617 40,000  Level FlightAware ADS-B
Sat 06:41:42 PM 45.2890 -84.6000 92° East 536 617 40,000  Level FlightAware ADS-B
Sat 06:42:19 PM 45.2850 -84.4740 93° East 535 616 40,000  Level FlightAware ADS-B
Sat 06:42:52 PM 45.2820 -84.3570 92° East 534 615 40,000  Level FlightAware ADS-B
Sat 06:43:28 PM 45.2770 -84.2290 93° East 532 612 40,000  Level FlightAware ADS-B
Sat 06:44:06 PM 45.2730 -84.0980 92° East 529 609 40,000  Level FlightAware ADS-B
Sat 06:44:38 PM 45.2700 -83.9850 92° East 525 604 40,000  Level FlightAware ADS-B
Sat 06:45:13 PM 45.2660 -83.8700 93° East 522 601 40,000  Level FlightAware ADS-B
Sat 06:45:50 PM 45.2610 -83.7410 93° East 520 598 40,000  Level FlightAware ADS-B
Sat 06:46:23 PM 45.2570 -83.6320 93° East 518 596 40,000  Level FlightAware ADS-B
Sat 06:46:59 PM 45.2520 -83.5090 93° East 517 595 40,000  Level FlightAware ADS-B
Sat 06:47:35 PM 45.2480 -83.3900 93° East 516 594 40,000  Level FlightAware ADS-B
Sat 06:48:11 PM 45.2430 -83.2680 93° East 514 592 40,000  Level FlightAware ADS-B
Sat 06:48:44 PM 45.2390 -83.1590 93° East 515 593 40,000  Level FlightAware ADS-B
Sat 06:49:20 PM 45.2340 -83.0410 93° East 515 593 40,000  Level FlightAware ADS-B
Sat 06:49:54 PM 45.2290 -82.9230 93° East 515 593 40,000  Level FlightAware ADS-B
Sat 06:50:31 PM 45.2230 -82.7950 94° East 516 594 40,000  Level FlightAware ADS-B
Sat 06:51:06 PM 45.2180 -82.6750 93° East 516 594 40,000 -92 Level FlightAware ADS-B
Sat 06:51:36 PM 45.2130 -82.5770 94° East 515 593 39,900 -806 Descending FlightAware ADS-B
Sat 06:52:13 PM 45.2020 -82.4580 97° East 520 598 39,100 -730 Descending FlightAware ADS-B
Sat 06:52:50 PM 45.1770 -82.3310 106° East 521 600 39,000 -87 Descending FlightAware ADS-B
Sat 06:53:22 PM 45.1540 -82.2280 108° East 521 600 39,000  Level FlightAware ADS-B
Sat 06:53:58 PM 45.1290 -82.1130 107° East 520 598 39,000  Level FlightAware ADS-B
Sat 06:54:34 PM 45.1030 -81.9990 108° East 520 598 39,000  Level FlightAware ADS-B
Sat 06:55:08 PM 45.0780 -81.8890 108° East 520 598 39,000  Level FlightAware ADS-B
Sat 06:55:43 PM 45.0520 -81.7730 108° East 520 598 39,000  Level FlightAware ADS-B
Sat 06:56:21 PM 45.0230 -81.6490 108° East 519 597 39,000  Level FlightAware ADS-B
Sat 06:56:53 PM 45.0000 -81.5450 107° East 521 600 39,000  Level FlightAware ADS-B
Sat 06:57:26 PM 44.9750 -81.4380 108° East 520 598 39,000  Level FlightAware ADS-B
Sat 06:58:03 PM 44.9480 -81.3190 108° East 519 597 39,000  Level FlightAware ADS-B
Sat 06:58:39 PM 44.9210 -81.2030 108° East 519 597 39,000  Level FlightAware ADS-B
Sat 06:59:12 PM 44.8960 -81.0970 108° East 519 597 39,000  Level FlightAware ADS-B
Sat 06:59:49 PM 44.8680 -80.9780 108° East 519 597 39,000  Level FlightAware ADS-B
Sat 07:00:25 PM 44.8400 -80.8600 108° East 519 597 39,000  Level FlightAware ADS-B
Sat 07:00:58 PM 44.8160 -80.7590 108° East 519 597 39,000  Level FlightAware ADS-B
Sat 07:01:35 PM 44.7880 -80.6400 108° East 519 597 39,000  Level FlightAware ADS-B
Sat 07:02:09 PM 44.7610 -80.5280 109° East 520 598 39,000  Level FlightAware ADS-B
Sat 07:02:43 PM 44.7360 -80.4230 108° East 520 598 39,000  Level FlightAware ADS-B
Sat 07:03:17 PM 44.7090 -80.3120 109° East 520 598 39,000  Level FlightAware ADS-B
Sat 07:03:54 PM 44.6810 -80.1970 109° East 520 598 39,000  Level FlightAware ADS-B
Sat 07:04:31 PM 44.6520 -80.0770 109° East 520 598 39,000  Level FlightAware ADS-B
Sat 07:05:07 PM 44.6230 -79.9610 109° East 520 598 39,000  Level FlightAware ADS-B
Sat 07:05:40 PM 44.5980 -79.8570 109° East 520 598 39,000  Level FlightAware ADS-B
Sat 07:06:14 PM 44.5700 -79.7470 110° East 520 598 39,000  Level FlightAware ADS-B
Sat 07:06:52 PM 44.5400 -79.6320 110° East 519 597 39,000  Level FlightAware ADS-B
Sat 07:07:24 PM 44.5130 -79.5280 110° East 519 597 39,000  Level FlightAware ADS-B
Sat 07:07:59 PM 44.4840 -79.4200 111° Southeast 516 594 39,000  Level FlightAware ADS-B
Sat 07:08:37 PM 44.4520 -79.2990 110° East 516 594 39,000  Level FlightAware ADS-B
Sat 07:09:08 PM 44.4260 -79.2030 111° Southeast 515 593 39,000  Level FlightAware ADS-B
Sat 07:09:45 PM 44.3960 -79.0880 110° East 514 592 39,000  Level FlightAware ADS-B
Sat 07:10:22 PM 44.3650 -78.9740 111° Southeast 513 590 39,000  Level FlightAware ADS-B
Sat 07:10:53 PM 44.3390 -78.8750 110° East 513 590 39,000  Level FlightAware ADS-B
Sat 07:11:29 PM 44.3090 -78.7650 111° Southeast 514 592 39,000  Level FlightAware ADS-B
Sat 07:12:05 PM 44.2790 -78.6520 110° East 515 593 39,000  Level FlightAware ADS-B
Sat 07:12:42 PM 44.2480 -78.5380 111° Southeast 516 594 39,000  Level FlightAware ADS-B
Sat 07:13:15 PM 44.2210 -78.4400 111° Southeast 518 596 39,000  Level FlightAware ADS-B
Sat 07:13:49 PM 44.1900 -78.3290 111° Southeast 519 597 39,000  Level FlightAware ADS-B
Sat 07:14:26 PM 44.1580 -78.2130 111° Southeast 519 597 39,000  Level FlightAware ADS-B
Sat 07:14:58 PM 44.1310 -78.1140 111° Southeast 519 597 39,000  Level FlightAware ADS-B
Sat 07:15:35 PM 44.0990 -78.0010 111° Southeast 521 600 39,000  Level FlightAware ADS-B
Sat 07:16:10 PM 44.0680 -77.8900 111° Southeast 522 601 39,000  Level FlightAware ADS-B
Sat 07:16:47 PM 44.0350 -77.7740 112° Southeast 524 603 39,000  Level FlightAware ADS-B
Sat 07:17:18 PM 44.0090 -77.6800 111° Southeast 523 602 39,000  Level FlightAware ADS-B
Sat 07:17:54 PM 43.9760 -77.5660 112° Southeast 523 602 39,000  Level FlightAware ADS-B
Sat 07:18:32 PM 43.9430 -77.4480 111° Southeast 523 602 39,000  Level FlightAware ADS-B
Sat 07:19:04 PM 43.9150 -77.3490 111° Southeast 523 602 39,000  Level FlightAware ADS-B
Sat 07:19:40 PM 43.8820 -77.2350 112° Southeast 524 603 39,000  Level FlightAware ADS-B
Sat 07:20:16 PM 43.8490 -77.1230 112° Southeast 523 602 39,000  Level FlightAware ADS-B
Sat 07:20:48 PM 43.8210 -77.0250 112° Southeast 523 602 39,000  Level FlightAware ADS-B
Sat 07:21:24 PM 43.7880 -76.9130 112° Southeast 524 603 39,000  Level FlightAware ADS-B
Sat 07:22:00 PM 43.7560 -76.8040 112° Southeast 523 602 39,000  Level FlightAware ADS-B
Sat 07:22:30 PM 43.7210 -76.7160 119° Southeast 517 595 39,000  Level FlightAware ADS-B
Sat 07:23:02 PM 43.6710 -76.6370 131° Southeast 510 587 39,000  Level FlightAware ADS-B
Sat 07:23:38 PM 43.6100 -76.5560 136° Southeast 508 585 39,000  Level FlightAware ADS-B
Sat 07:24:14 PM 43.5490 -76.4760 136° Southeast 507 583 39,000  Level FlightAware ADS-B
Sat 07:24:46 PM 43.4950 -76.4050 136° Southeast 507 583 39,000  Level FlightAware ADS-B
Sat 07:25:24 PM 43.4300 -76.3200 136° Southeast 505 581 39,000  Level FlightAware ADS-B
Sat 07:26:00 PM 43.3690 -76.2400 136° Southeast 506 582 39,000  Level FlightAware ADS-B
Sat 07:26:32 PM 43.3150 -76.1700 137° Southeast 505 581 39,000  Level FlightAware ADS-B
Sat 07:27:08 PM 43.2540 -76.0900 136° Southeast 505 581 39,000  Level FlightAware ADS-B
Sat 07:27:43 PM 43.1960 -76.0140 136° Southeast 502 578 39,000  Level FlightAware ADS-B
Sat 07:28:19 PM 43.1340 -75.9340 137° Southeast 500 575 39,000  Level FlightAware ADS-B
Sat 07:28:51 PM 43.0820 -75.8670 137° Southeast 500 575 39,000  Level FlightAware ADS-B
Sat 07:29:29 PM 43.0180 -75.7840 137° Southeast 499 574 39,000  Level FlightAware ADS-B
Sat 07:30:01 PM 42.9650 -75.7160 137° Southeast 499 574 39,000  Level FlightAware ADS-B
Sat 07:30:37 PM 42.9020 -75.6350 137° Southeast 500 575 39,000  Level FlightAware ADS-B
Sat 07:31:13 PM 42.8440 -75.5600 137° Southeast 500 575 39,000  Level FlightAware ADS-B
Sat 07:31:49 PM 42.7820 -75.4810 137° Southeast 502 578 39,000  Level FlightAware ADS-B
Sat 07:32:22 PM 42.7260 -75.4110 137° Southeast 503 579 39,000  Level FlightAware ADS-B
Sat 07:32:58 PM 42.6660 -75.3340 137° Southeast 503 579 39,000  Level FlightAware ADS-B
Sat 07:33:35 PM 42.6030 -75.2540 137° Southeast 503 579 39,000  Level FlightAware ADS-B
Sat 07:34:11 PM 42.5410 -75.1770 138° Southeast 503 579 39,000  Level FlightAware ADS-B
Sat 07:34:43 PM 42.4850 -75.1050 137° Southeast 504 580 39,000  Level FlightAware ADS-B
Sat 07:35:19 PM 42.4250 -75.0300 137° Southeast 503 579 39,000 -273 Level FlightAware ADS-B
Sat 07:35:49 PM 42.3760 -74.9680 137° Southeast 500 575 38,700 -1,676 Descending FlightAware ADS-B
Sat 07:36:27 PM 42.3110 -74.8870 137° Southeast 508 585 37,100 -2,514 Descending FlightAware ADS-B
Sat 07:37:03 PM 42.2460 -74.8070 138° Southeast 507 583 35,600 -2,727 Descending FlightAware ADS-B
Sat 07:37:44 PM 42.1770 -74.7210 137° Southeast 511 588 33,600 -2,961 Descending FlightAware ADS-B
Sat 07:38:20 PM 42.1140 -74.6430 137° Southeast 515 593 31,800 -3,288 Descending FlightAware ADS-B
Sat 07:38:57 PM 42.0480 -74.5610 137° Southeast 518 596 29,600 -2,957 Descending FlightAware ADS-B
Sat 07:39:29 PM 41.9950 -74.4940 137° Southeast 517 595 28,400 -1,970 Descending FlightAware ADS-B
Sat 07:40:04 PM 41.9350 -74.4200 137° Southeast 510 587 27,400 -1,886 Descending FlightAware ADS-B
Sat 07:40:39 PM 41.8640 -74.3620 149° Southeast 515 593 26,200 -2,028 Descending FlightAware ADS-B
Sat 07:41:15 PM 41.7850 -74.3120 155° Southeast 510 587 25,000 -1,917 Descending FlightAware ADS-B
Sat 07:41:51 PM 41.7070 -74.2630 155° Southeast 498 573 23,900 -1,826 Descending FlightAware ADS-B
Sat 07:42:24 PM 41.6410 -74.2220 155° Southeast 486 559 22,900 -1,781 Descending FlightAware ADS-B
Sat 07:42:55 PM 41.5770 -74.1830 155° Southeast 475 547 22,000 -1,859 Descending FlightAware ADS-B
Sat 07:43:35 PM 41.5000 -74.1340 155° Southeast 466 536 20,700 -1,538 Descending FlightAware ADS-B
Sat 07:44:13 PM 41.4240 -74.0920 157° South 446 513 20,000 -720 Descending FlightAware ADS-B
Sat 07:44:25 PM 41.4030 -74.0870 170° South 444 511 20,100  Climbing FlightAware ADS-B
Sat 07:44:53 PM 41.3440 -74.1010 190° South 433 498 20,000 -94 Descending FlightAware ADS-B
Sat 07:45:29 PM 41.2810 -74.1460 208° Southwest 432 497 20,000  Level FlightAware ADS-B
Sat 07:45:49 PM 41.2430 -74.1610 197° South 439 505 20,000  Level FlightAware ADS-B
Sat 07:46:09 PM 41.2030 -74.1650 184° South 447 514 20,000 -218 Level FlightAware ADS-B
Sat 07:46:44 PM 41.1300 -74.1580 176° South 448 516 19,800 -794 Descending FlightAware ADS-B
Sat 07:47:17 PM 41.0640 -74.1510 175° South 439 505 19,100 -696 Descending FlightAware ADS-B
Sat 07:47:53 PM 40.9930 -74.1440 176° South 441 507 19,000 -103 Descending FlightAware ADS-B
Sat 07:48:15 PM 40.9470 -74.1340 171° South 441 507 19,000  Level FlightAware ADS-B
Sat 07:48:35 PM 40.9090 -74.1070 152° Southeast 425 489 19,000  Level FlightAware ADS-B
Sat 07:49:11 PM 40.8560 -74.0580 145° Southeast 376 433 19,000 -411 Level FlightAware ADS-B
Sat 07:49:48 PM 40.7980 -74.0330 162° South 354 407 18,500 -943 Descending FlightAware ADS-B
Sat 07:50:21 PM 40.7480 -74.0120 162° South 341 392 17,900 -1,412 Descending FlightAware ADS-B
Sat 07:50:56 PM 40.6940 -73.9900 163° South 337 388 16,900 -1,565 Descending FlightAware ADS-B
Sat 07:51:30 PM 40.6460 -73.9710 163° South 330 380 16,100 -1,304 Descending FlightAware ADS-B
Sat 07:52:05 PM 40.5950 -73.9510 163° South 321 369 15,400 -1,562 Descending FlightAware ADS-B
Sat 07:52:43 PM 40.5390 -73.9300 164° South 321 369 14,200 -1,652 Descending FlightAware ADS-B
Sat 07:53:14 PM 40.4960 -73.9140 164° South 319 367 13,500 -1,457 Descending FlightAware ADS-B
Sat 07:53:53 PM 40.4400 -73.8930 164° South 317 365 12,500 -1,569 Descending FlightAware ADS-B
Sat 07:54:19 PM 40.4020 -73.8770 162° South 317 365 11,800 -1,692 Descending FlightAware ADS-B
Sat 07:54:32 PM 40.3890 -73.8650 145° Southeast 314 361 11,400 -1,909 Descending FlightAware ADS-B
Sat 07:54:41 PM 40.3810 -73.8520 129° Southeast 312 359 11,100 -2,471 Descending FlightAware ADS-B
Sat 07:54:49 PM 40.3760 -73.8380 115° Southeast 311 358 10,700 -2,526 Descending FlightAware ADS-B
Sat 07:55:00 PM 40.3720 -73.8170 104° East 308 354 10,300 -2,488 Descending FlightAware ADS-B
Sat 07:55:30 PM 40.3790 -73.7620 80° East 301 346 9,000 -2,571 Descending FlightAware ADS-B
Sat 07:55:49 PM 40.3850 -73.7270 77° East 298 343 8,200 -2,053 Descending FlightAware ADS-B
Sat 07:56:08 PM 40.3890 -73.7000 79° East 294 338 7,700 -2,133 Descending FlightAware ADS-B
Sat 07:56:34 PM 40.3970 -73.6530 77° East 289 333 6,600 -2,400 Descending FlightAware ADS-B
Sat 07:56:53 PM 40.4030 -73.6180 77° East 285 328 5,900 -2,250 Descending FlightAware ADS-B
Sat 07:57:06 PM 40.4070 -73.5970 76° East 283 326 5,400 -2,400 Descending FlightAware ADS-B
Sat 07:57:13 PM 40.4110 -73.5850 66° East 278 320 5,100 -2,000 Descending FlightAware ADS-B
Sat 07:57:21 PM 40.4180 -73.5750 47° Northeast 275 316 4,900 -1,412 Descending FlightAware ADS-B
Sat 07:57:30 PM 40.4260 -73.5660 41° Northeast 273 314 4,700 -1,200 Descending FlightAware ADS-B
Sat 07:57:41 PM 40.4370 -73.5540 40° Northeast 271 312 4,500 -1,161 Descending FlightAware ADS-B
Sat 07:58:01 PM 40.4570 -73.5340 37° Northeast 270 311 4,100 -800 Descending FlightAware ADS-B
Sat 07:58:26 PM 40.4820 -73.5090 37° Northeast 272 313 3,900 -267 Descending FlightAware ADS-B
Sat 07:58:46 PM 40.5010 -73.4890 39° Northeast 272 313 3,900  Level FlightAware ADS-B
Sat 07:59:07 PM 40.5230 -73.4670 37° Northeast 270 311 3,900  Level FlightAware ADS-B
Sat 07:59:27 PM 40.5430 -73.4470 37° Northeast 269 310 3,900  Level FlightAware ADS-B
Sat 07:59:47 PM 40.5620 -73.4270 39° Northeast 270 311 3,900  Level FlightAware ADS-B
Sat 08:00:11 PM 40.5850 -73.4040 37° Northeast 270 311 3,900  Level FlightAware ADS-B
Sat 08:00:30 PM 40.6050 -73.3850 36° Northeast 270 311 3,900  Level FlightAware ADS-B
Sat 08:00:39 PM 40.6150 -73.3800 21° North 267 307 3,900  Level FlightAware ADS-B
Sat 08:00:43 PM 40.6210 -73.3790 North 266 306 3,900  Level FlightAware ADS-B
Sat 08:01:07 PM 40.6460 -73.3890 343° North 263 303 3,900  Level FlightAware ADS-B
Sat 08:01:11 PM 40.6520 -73.3950 323° Northwest 264 304 3,900  Level FlightAware ADS-B
Sat 08:01:34 PM 40.6720 -73.4190 318° Northwest 265 305 3,900  Level FlightAware ADS-B
Sat 08:01:54 PM 40.6870 -73.4440 308° West 262 302 3,900 -146 Level FlightAware ADS-B
Sat 08:02:15 PM 40.7020 -73.4710 306° West 260 299 3,800 -769 Descending FlightAware ADS-B
Sat 08:02:33 PM 40.7150 -73.4940 307° West 258 297 3,400 -1,286 Descending FlightAware ADS-B
Sat 08:02:57 PM 40.7330 -73.5250 307° West 258 297 2,900 -818 Descending FlightAware ADS-B
Sat 08:03:17 PM 40.7470 -73.5510 305° West 258 297 2,800 -818 Descending FlightAware ADS-B
Sat 08:03:41 PM 40.7590 -73.5830 296° West 248 285 2,300 -1,000 Descending FlightAware ADS-B
Sat 08:03:59 PM 40.7690 -73.6070 299° West 238 274 2,100 -643 Descending FlightAware ADS-B
Sat 08:04:09 PM 40.7720 -73.6210 286° West 234 269 2,000 -857 Descending FlightAware ADS-B
Sat 08:04:13 PM 40.7720 -73.6260 270° West 232 267 1,900 -214 Descending FlightAware ADS-B
Sat 08:04:37 PM 40.7640 -73.6550 250° West 218 251 1,900  Level FlightAware ADS-B
Sat 08:04:41 PM 40.7610 -73.6590 225° Southwest 216 249 1,900  Level FlightAware ADS-B
Sat 08:04:49 PM 40.7550 -73.6660 221° Southwest 210 242 1,900  Level FlightAware ADS-B
Sat 08:05:09 PM 40.7400 -73.6800 215° Southwest 192 221 1,900 -409 Level FlightAware ADS-B
Sat 08:05:33 PM 40.7220 -73.6950 212° Southwest 177 204 1,600 -833 Descending FlightAware ADS-B
Sat 08:05:45 PM 40.7140 -73.7010 210° Southwest 169 194 1,400 -750 Descending FlightAware ADS-B
Sat 08:06:05 PM 40.7020 -73.7110 212° Southwest 149 171 1,200 -698 Descending FlightAware ADS-B
Sat 08:06:28 PM 40.6890 -73.7210 210° Southwest 132 152 900 -682 Descending FlightAware ADS-B
Sat 08:06:49 PM 40.6780 -73.7290 209° Southwest 133 153 700 -732 Descending FlightAware ADS-B
Sat 08:07:09 PM 40.6680 -73.7370 211° Southwest 132 152 400 -769 Descending FlightAware ADS-B
Sat 08:07:28 PM 40.6570 -73.7460 212° Southwest 133 153 200 -632 Descending FlightAware ADS-B
Sat 08:07:52 PM 40.6440 -73.7560 210° Southwest 132 152 -500 Descending FlightAware ADS-B
Sat 08:08:04 PM 40.6380 -73.7600 207° Southwest 115 132  Level FlightAware ADS-B

Login

Don't have an account? Register now (free) for customized features, flight alerts, and more!